Time;durP1;ratioP1;P1;durP2;ratioP2;P2;SDS_P1;SDS_P2;PMS_P1;PMS_P2;Temp;Humidity;BMP_temperature;BMP_pressure;BME280_temperature;BME280_humidity;BME280_pressure;Samples;Min_cycle;Max_cycle;Signal;HPM_P1;HPM_P2
2022/11/17 00:02:23;;;;;;;9.43;7.53;;;;;;;5.96;73.50;99164.41;4941316;28;96951;-86
2022/11/17 00:04:48;;;;;;;11.47;8.43;;;;;;;5.94;73.83;99171.44;4935329;28;97168;-87
2022/11/17 00:07:14;;;;;;;10.87;7.93;;;;;;;5.83;73.49;99162.16;4935127;28;97419;-87
2022/11/17 00:09:40;;;;;;;9.07;7.97;;;;;;;5.85;73.66;99175.16;4936525;28;100640;-84
2022/11/17 00:14:49;;;;;;;9.60;7.57;;;;;;;5.80;74.11;99166.63;4941629;28;97404;-86
2022/11/17 00:17:15;;;;;;;9.57;7.53;;;;;;;5.73;74.10;99146.88;4929778;28;101972;-86
2022/11/17 00:22:25;;;;;;;7.93;7.13;;;;;;;5.88;74.17;99164.63;4946733;28;97042;-86
2022/11/17 00:24:50;;;;;;;9.52;7.65;;;;;;;5.95;73.97;99170.50;4919520;28;97138;-84
2022/11/17 00:27:16;;;;;;;7.80;6.57;;;;;;;5.95;73.63;99175.72;4936489;28;101020;-86
2022/11/17 00:29:42;;;;;;;7.47;6.53;;;;;;;5.71;73.85;99159.97;4922677;28;99874;-86
2022/11/17 00:34:55;;;;;;;7.35;6.20;;;;;;;5.67;74.42;99159.22;4953178;28;96973;-86
2022/11/17 00:37:21;;;;;;;6.70;6.00;;;;;;;5.65;74.24;99163.63;4906820;28;101956;-86
2022/11/17 00:39:47;;;;;;;7.17;6.23;;;;;;;5.78;74.57;99168.44;4930434;28;101179;-87
2022/11/17 00:42:12;;;;;;;8.17;6.77;;;;;;;5.76;74.03;99160.69;4917923;28;96856;-85
2022/11/17 00:44:37;;;;;;;6.70;5.28;;;;;;;5.78;73.93;99168.44;4925924;28;96865;-87
2022/11/17 00:47:03;;;;;;;6.63;5.90;;;;;;;5.70;73.90;99160.84;4952099;28;101021;-87
2022/11/17 00:49:28;;;;;;;8.37;6.00;;;;;;;5.78;74.37;99164.06;4935432;28;101293;-86
2022/11/17 00:51:54;;;;;;;6.53;5.60;;;;;;;5.88;74.00;99188.94;4936198;28;97140;-87
2022/11/17 00:54:20;;;;;;;6.95;5.47;;;;;;;5.90;74.06;99173.22;4952253;28;97367;-86
2022/11/17 00:56:46;;;;;;;6.90;5.60;;;;;;;5.84;74.03;99161.25;4935697;28;101292;-85
2022/11/17 00:59:12;;;;;;;8.00;5.78;;;;;;;5.95;74.30;99179.19;4925503;28;101303;-87
2022/11/17 01:01:38;;;;;;;6.50;5.20;;;;;;;5.90;73.72;99165.41;4936747;28;97206;-86
2022/11/17 01:04:05;;;;;;;6.73;5.60;;;;;;;5.94;73.92;99174.03;4940512;28;98384;-86
2022/11/17 01:06:35;;;;;;;6.50;5.33;;;;;;;5.81;73.78;99169.19;4929136;28;101046;-84
2022/11/17 01:09:03;;;;;;;5.97;5.17;;;;;;;5.78;73.90;99150.19;4925616;28;98933;-86
2022/11/17 01:11:29;;;;;;;5.60;5.07;;;;;;;5.90;73.92;99166.28;4935190;28;97100;-86
2022/11/17 01:13:57;;;;;;;6.27;5.07;;;;;;;5.80;73.99;99169.25;4943355;28;97248;-85
2022/11/17 01:16:23;;;;;;;6.63;5.10;;;;;;;5.78;73.88;99174.47;4934358;28;100741;-86
2022/11/17 01:18:49;;;;;;;6.17;5.23;;;;;;;5.71;74.19;99156.53;4950885;28;101410;-86
2022/11/17 01:21:17;;;;;;;6.45;4.93;;;;;;;5.64;74.37;99146.31;4935299;28;97064;-84
2022/11/17 01:23:44;;;;;;;6.57;5.43;;;;;;;5.79;74.39;99168.41;4951755;28;97671;-85
2022/11/17 01:26:15;;;;;;;6.27;4.97;;;;;;;5.76;74.18;99162.41;4935729;28;98589;-85
2022/11/17 01:28:42;;;;;;;5.70;4.70;;;;;;;5.74;73.98;99166.84;4934251;28;100993;-86
2022/11/17 01:31:11;;;;;;;6.70;5.13;;;;;;;5.68;74.39;99163.53;4934680;28;97241;-87
2022/11/17 01:33:37;;;;;;;5.43;4.73;;;;;;;5.72;74.56;99171.25;4925960;28;98429;-87
2022/11/17 01:36:04;;;;;;;6.03;4.40;;;;;;;5.64;74.51;99153.25;4941508;28;101363;-86
2022/11/17 01:38:30;;;;;;;5.43;4.37;;;;;;;5.72;74.37;99164.28;4931255;28;101581;-86
2022/11/17 01:40:59;;;;;;;4.90;4.40;;;;;;;5.80;74.85;99164.88;4928510;28;97062;-86
2022/11/17 01:43:43;;;;;;;5.00;4.30;;;;;;;5.75;74.10;99142.50;4933090;28;96948;-85
2022/11/17 01:46:22;;;;;;;5.30;4.30;;;;;;;5.82;74.12;99144.84;4928091;28;100962;-88
2022/11/17 01:48:48;;;;;;;5.00;4.20;;;;;;;5.79;74.27;99141.47;4935533;28;101329;-86
2022/11/17 01:51:14;;;;;;;6.03;4.60;;;;;;;5.80;74.22;99127.56;4914196;28;97019;-85
2022/11/17 01:53:42;;;;;;;5.03;4.40;;;;;;;5.96;74.16;99151.38;4940560;28;97116;-86
2022/11/17 01:56:11;;;;;;;5.60;4.03;;;;;;;5.94;74.18;99153.19;4919216;28;99861;-86
2022/11/17 01:58:40;;;;;;;4.83;4.00;;;;;;;5.88;73.88;99142.03;4922121;28;100067;-86
2022/11/17 02:01:06;;;;;;;6.10;5.03;;;;;;;5.90;74.03;99139.38;4950961;28;97200;-86
2022/11/17 02:03:33;;;;;;;5.50;4.23;;;;;;;5.87;74.13;99145.53;4934674;28;97109;-86
2022/11/17 02:06:10;;;;;;;6.40;4.55;;;;;;;5.80;73.86;99133.63;4935229;28;98130;-86
2022/11/17 02:08:38;;;;;;;5.07;4.33;;;;;;;5.86;74.13;99149.03;4923541;28;101204;-86
2022/11/17 02:11:07;;;;;;;5.63;3.77;;;;;;;5.88;74.12;99146.41;4957445;28;96808;-86
2022/11/17 02:13:34;;;;;;;5.87;4.50;;;;;;;5.95;73.99;99153.13;4933143;28;97354;-86
2022/11/17 02:15:59;;;;;;;4.40;3.77;;;;;;;5.90;74.32;99150.66;4949954;28;97883;-87
2022/11/17 02:18:25;;;;;;;5.28;4.43;;;;;;;5.86;73.85;99151.66;4933728;28;98759;-86
2022/11/17 02:21:13;;;;;;;5.03;4.10;;;;;;;5.84;74.11;99150.84;4950221;28;97138;-86
2022/11/17 02:23:59;;;;;;;5.13;4.27;;;;;;;5.81;74.53;99147.50;4933917;28;96831;-84
2022/11/17 02:27:02;;;;;;;4.13;3.73;;;;;;;5.83;74.38;99143.94;4950666;28;100836;-88
2022/11/17 02:29:40;;;;;;;5.20;4.32;;;;;;;5.89;74.34;99137.69;4950877;28;97341;-86
2022/11/17 02:32:10;;;;;;;6.27;4.37;;;;;;;5.86;74.70;99129.97;4918203;28;97200;-85
2022/11/17 02:34:54;;;;;;;5.18;3.95;;;;;;;5.85;74.35;99136.09;4915169;28;97277;-85
2022/11/17 02:37:26;;;;;;;5.07;3.90;;;;;;;5.76;74.12;99112.94;4945175;28;98401;-86
2022/11/17 02:39:58;;;;;;;6.10;4.30;;;;;;;5.82;74.18;99125.78;4928620;28;98001;-85
2022/11/17 02:44:02;;;;;;;;;;;;;;;5.79;74.52;99133.66;4949873;28;97072;-87
2022/11/17 02:45:15;;;;;;;4.37;3.73;;;;;;;5.67;74.60;99124.50;4951448;28;97270;-85
2022/11/17 02:47:41;;;;;;;5.13;4.47;;;;;;;5.61;74.84;99115.19;4933660;28;100408;-87
2022/11/17 02:50:08;;;;;;;5.80;4.90;;;;;;;5.71;74.99;99131.34;4949562;28;98073;-86
2022/11/17 02:52:33;;;;;;;5.87;4.67;;;;;;;5.75;74.62;99119.06;4937538;28;97287;-86
2022/11/17 02:54:59;;;;;;;5.03;4.33;;;;;;;5.79;74.36;99118.03;4964413;28;97176;-86
2022/11/17 02:57:36;;;;;;;5.43;4.90;;;;;;;5.89;74.93;99125.50;4917645;28;100977;-86
2022/11/17 03:00:10;;;;;;;5.27;4.77;;;;;;;5.82;74.92;99118.81;4934046;28;99489;-87
2022/11/17 03:02:44;;;;;;;7.63;5.00;;;;;;;5.66;74.20;99088.97;4946422;28;97939;-87
2022/11/17 03:05:36;;;;;;;6.22;5.20;;;;;;;5.77;74.43;99107.69;4939734;28;96684;-86
2022/11/17 03:08:14;;;;;;;5.70;5.10;;;;;;;5.80;74.42;99123.22;4967882;28;101515;-87
2022/11/17 03:10:50;;;;;;;5.67;5.17;;;;;;;5.76;74.93;99120.75;4935561;28;101667;-84
2022/11/17 03:13:34;;;;;;;6.80;5.10;;;;;;;5.85;74.54;99134.34;4925818;28;97194;-85
2022/11/17 03:16:19;;;;;;;7.17;5.60;;;;;;;5.86;74.72;99127.38;4943226;28;96881;-86
2022/11/17 03:19:10;;;;;;;7.77;5.57;;;;;;;5.85;74.53;99128.28;4934343;28;101285;-87
2022/11/17 03:21:42;;;;;;;6.87;5.30;;;;;;;5.88;74.30;99134.22;4960670;28;97340;-87
2022/11/17 03:24:18;;;;;;;7.15;6.07;;;;;;;5.76;74.57;99120.75;4963260;28;97296;-86
2022/11/17 03:26:50;;;;;;;6.23;5.60;;;;;;;5.78;74.46;99135.41;4933533;28;96984;-85
2022/11/17 03:29:17;;;;;;;7.55;6.25;;;;;;;5.76;74.87;99131.16;4950251;28;97384;-86
2022/11/17 03:31:44;;;;;;;7.67;6.87;;;;;;;5.79;74.76;99128.47;4917356;28;99854;-86
2022/11/17 03:34:13;;;;;;;7.90;6.40;;;;;;;5.83;74.67;99136.13;4934301;28;96775;-86
2022/11/17 03:36:42;;;;;;;7.87;6.40;;;;;;;5.84;74.36;99135.22;4918254;28;97158;-86
2022/11/17 03:39:11;;;;;;;9.10;7.27;;;;;;;5.85;74.19;99136.09;4943899;28;101158;-86
2022/11/17 03:41:41;;;;;;;8.93;7.23;;;;;;;5.81;74.17;99131.88;4907526;28;101492;-86
2022/11/17 03:44:06;;;;;;;10.53;8.13;;;;;;;5.79;74.52;99137.16;4917911;28;96860;-87
2022/11/17 03:46:34;;;;;;;10.00;7.20;;;;;;;5.80;74.53;99148.41;4967056;28;96834;-86
2022/11/17 03:49:11;;;;;;;12.27;7.30;;;;;;;5.84;74.68;99148.22;4927772;28;101277;-87
2022/11/17 03:51:37;;;;;;;9.73;7.53;;;;;;;5.81;74.40;99148.34;4928356;28;100773;-86
2022/11/17 03:54:02;;;;;;;10.73;7.77;;;;;;;5.83;74.28;99140.50;4921637;28;97275;-85
2022/11/17 03:56:43;;;;;;;8.30;7.40;;;;;;;5.86;74.62;99149.03;4934274;28;96852;-86
2022/11/17 03:59:22;;;;;;;10.20;8.40;;;;;;;5.87;74.72;99137.72;4919157;28;101350;-86
2022/11/17 04:01:48;;;;;;;11.10;8.13;;;;;;;5.89;74.47;99151.53;4952290;28;100956;-86
2022/11/17 04:04:15;;;;;;;9.30;8.30;;;;;;;5.84;74.24;99157.81;4936889;28;97101;-86
2022/11/17 04:06:40;;;;;;;9.00;7.43;;;;;;;5.83;74.31;99151.75;4953185;28;97469;-86
2022/11/17 04:09:06;;;;;;;11.67;7.97;;;;;;;5.78;74.40;99148.44;4936797;28;101151;-86
2022/11/17 04:16:59;;;;;;;10.77;7.80;;;;;;;5.74;74.37;99138.19;4936722;28;97001;-87
2022/11/17 04:19:25;;;;;;;9.87;7.93;;;;;;;5.73;74.22;99142.56;4935458;28;99826;-87
2022/11/17 04:21:50;;;;;;;10.43;7.43;;;;;;;5.62;74.44;99147.25;4952789;28;97352;-87
2022/11/17 04:24:17;;;;;;;12.00;9.30;;;;;;;5.66;74.27;99149.69;4937065;28;97046;-87
2022/11/17 04:29:27;;;;;;;9.13;8.17;;;;;;;5.60;74.68;99134.28;4966596;28;101563;-86
2022/11/17 04:31:53;;;;;;;9.90;8.47;;;;;;;5.72;74.53;99140.84;4934843;28;101309;-85
2022/11/17 04:34:19;;;;;;;10.07;8.37;;;;;;;5.80;73.98;99135.38;4914517;28;97411;-86
2022/11/17 04:36:44;;;;;;;8.60;7.70;;;;;;;5.84;74.37;99140.41;4919891;28;97221;-86
2022/11/17 04:39:14;;;;;;;9.70;7.90;;;;;;;5.80;74.11;99136.22;4937237;28;98421;-87
2022/11/17 04:42:02;;;;;;;9.07;7.50;;;;;;;5.83;74.54;99135.28;4935540;28;101338;-87
2022/11/17 04:44:30;;;;;;;9.77;8.53;;;;;;;5.74;74.22;99122.56;4940003;28;96729;-87
2022/11/17 04:46:56;;;;;;;10.53;7.57;;;;;;;5.80;74.38;99127.56;4918732;28;97053;-87
2022/11/17 04:49:22;;;;;;;11.13;8.33;;;;;;;5.84;73.84;99132.59;4919395;28;101087;-84
2022/11/17 04:51:49;;;;;;;8.83;7.87;;;;;;;5.74;73.70;99112.16;4965433;28;100444;-86
2022/11/17 04:54:18;;;;;;;11.02;8.43;;;;;;;5.82;73.71;99131.00;4924159;28;96998;-87
2022/11/17 04:56:44;;;;;;;11.13;8.03;;;;;;;5.71;73.82;99120.91;4930353;28;97928;-87
2022/11/17 04:59:09;;;;;;;9.37;8.37;;;;;;;5.78;74.02;99129.38;4949124;28;97998;-86
2022/11/17 05:01:35;;;;;;;9.37;8.27;;;;;;;5.82;74.06;99142.25;4966143;28;101055;-87
2022/11/17 05:04:06;;;;;;;9.27;8.02;;;;;;;5.81;73.94;99132.72;4911696;28;96708;-87
2022/11/17 05:06:39;;;;;;;10.93;7.50;;;;;;;5.85;73.61;99136.94;4934591;28;96857;-87
2022/11/17 05:09:07;;;;;;;8.80;7.80;;;;;;;5.82;73.50;99131.84;4945779;28;100075;-87
2022/11/17 05:14:19;;;;;;;11.27;7.72;;;;;;;5.84;73.41;99144.78;4945448;28;97334;-87
2022/11/17 05:19:50;;;;;;;8.63;7.60;;;;;;;5.79;73.20;99142.34;4935275;28;101749;-86
2022/11/17 05:25:03;;;;;;;8.70;7.80;;;;;;;5.82;73.32;99150.06;4936691;28;97223;-87
2022/11/17 05:27:28;;;;;;;10.23;8.30;;;;;;;5.83;73.41;99143.94;4954769;28;96793;-86
2022/11/17 05:29:54;;;;;;;9.50;7.83;;;;;;;5.71;73.17;99143.50;4913849;28;101462;-87
2022/11/17 05:32:19;;;;;;;8.87;7.77;;;;;;;5.72;73.24;99159.06;4956081;28;98252;-87
2022/11/17 05:34:45;;;;;;;8.70;7.80;;;;;;;5.69;73.59;99161.78;4919171;28;96820;-86
2022/11/17 05:37:11;;;;;;;9.57;7.57;;;;;;;5.73;74.10;99167.72;4918614;28;96956;-86
2022/11/17 05:39:36;;;;;;;8.50;7.53;;;;;;;5.64;73.57;99172.34;4916664;28;101349;-86
2022/11/17 05:42:02;;;;;;;8.30;7.40;;;;;;;5.50;73.80;99134.63;4933369;28;101694;-88
2022/11/17 05:44:27;;;;;;;9.03;7.83;;;;;;;5.61;73.33;99166.38;4919110;28;97055;-87
2022/11/17 05:46:53;;;;;;;7.90;7.10;;;;;;;5.60;73.53;99155.09;4916829;28;96951;-85
2022/11/17 05:49:18;;;;;;;9.07;7.53;;;;;;;5.73;73.64;99165.13;4959661;28;101281;-86
2022/11/17 05:51:44;;;;;;;9.40;7.47;;;;;;;5.65;73.72;99155.81;4959395;28;100827;-87
2022/11/17 05:54:09;;;;;;;10.33;6.93;;;;;;;5.70;73.65;99153.03;4941739;28;97204;-84
2022/11/17 05:56:48;;;;;;;8.23;7.17;;;;;;;5.66;73.48;99154.06;4932070;28;97156;-86
2022/11/17 05:59:22;;;;;;;9.67;7.73;;;;;;;5.67;73.79;99143.59;4952597;28;97731;-86
2022/11/17 06:02:02;;;;;;;11.27;7.90;;;;;;;5.73;73.25;99142.56;4961418;28;100590;-85
2022/11/17 06:04:28;;;;;;;11.63;7.53;;;;;;;5.72;73.56;99142.59;4964264;28;96704;-86
2022/11/17 06:06:57;;;;;;;9.33;7.50;;;;;;;5.72;73.77;99142.59;4931869;28;97855;-84
2022/11/17 06:09:25;;;;;;;8.75;7.68;;;;;;;5.65;73.76;99139.34;4948165;28;100288;-85
2022/11/17 06:11:50;;;;;;;9.77;7.93;;;;;;;5.67;73.52;99148.81;4930461;28;99641;-84
2022/11/17 06:14:16;;;;;;;8.93;7.47;;;;;;;5.63;73.60;99142.00;4966331;28;97235;-83
2022/11/17 06:16:43;;;;;;;9.10;7.83;;;;;;;5.63;73.25;99144.59;4917321;28;97203;-84
2022/11/17 06:19:14;;;;;;;9.27;7.27;;;;;;;5.67;73.71;99155.75;4949765;28;98477;-85
2022/11/17 06:21:40;;;;;;;8.53;6.57;;;;;;;5.59;73.63;99145.59;4948635;28;98057;-88
2022/11/17 06:24:06;;;;;;;8.07;7.20;;;;;;;5.61;73.58;99153.34;4934668;28;97329;-88
2022/11/17 06:26:32;;;;;;;9.23;7.80;;;;;;;5.62;73.65;99147.25;4933933;28;96996;-88
2022/11/17 06:28:57;;;;;;;8.93;7.63;;;;;;;5.65;73.70;99153.22;4938686;28;101565;-89
2022/11/17 06:31:25;;;;;;;9.68;6.95;;;;;;;5.63;73.68;99144.59;4922867;28;101500;-87
2022/11/17 06:33:50;;;;;;;7.67;6.87;;;;;;;5.63;73.24;99149.78;4947578;28;96761;-89
2022/11/17 06:36:16;;;;;;;8.33;7.13;;;;;;;5.67;73.32;99158.34;4948559;28;96884;-88
2022/11/17 06:38:41;;;;;;;8.77;6.90;;;;;;;5.69;72.92;99156.56;4934479;28;101411;-88
2022/11/17 06:41:07;;;;;;;9.83;7.67;;;;;;;5.69;73.54;99140.94;4917438;28;100973;-88
2022/11/17 06:43:32;;;;;;;9.48;7.03;;;;;;;5.75;72.98;99158.13;4932594;28;97101;-85
2022/11/17 06:46:04;;;;;;;7.50;6.70;;;;;;;5.74;73.24;99167.69;4932099;28;96966;-87
2022/11/17 06:48:34;;;;;;;7.40;6.45;;;;;;;5.67;73.37;99148.81;4934603;28;100999;-86
2022/11/17 06:51:03;;;;;;;8.32;6.97;;;;;;;5.73;73.00;99159.91;4949626;28;98377;-87
2022/11/17 06:53:29;;;;;;;7.13;6.23;;;;;;;5.65;72.96;99158.41;4933181;28;97161;-85
2022/11/17 06:56:10;;;;;;;8.18;7.05;;;;;;;5.63;72.81;99155.00;4933920;28;97299;-86
2022/11/17 06:58:37;;;;;;;8.00;6.68;;;;;;;5.67;73.22;99167.03;4945962;28;101371;-87
2022/11/17 07:01:06;;;;;;;7.40;6.27;;;;;;;5.71;73.21;99159.13;4949860;28;100964;-86
2022/11/17 07:03:33;;;;;;;8.67;7.03;;;;;;;5.70;72.78;99184.28;4914671;28;97035;-87
2022/11/17 07:05:59;;;;;;;9.30;7.20;;;;;;;5.63;73.06;99169.78;4947600;28;97147;-87
2022/11/17 07:08:25;;;;;;;8.50;6.93;;;;;;;5.57;72.88;99155.22;4946652;28;97516;-87
2022/11/17 07:10:53;;;;;;;8.57;6.57;;;;;;;5.66;72.59;99174.88;4932606;28;101840;-87
2022/11/17 07:13:25;;;;;;;8.37;6.77;;;;;;;5.68;72.97;99167.88;4933197;28;97345;-86
2022/11/17 07:15:50;;;;;;;8.00;6.72;;;;;;;5.78;72.93;99179.69;4929267;28;96921;-87
2022/11/17 07:18:17;;;;;;;8.13;6.63;;;;;;;5.73;72.68;99165.13;4944500;28;101452;-88
2022/11/17 07:20:43;;;;;;;8.10;6.30;;;;;;;5.79;72.79;99173.59;4931580;28;101141;-87
2022/11/17 07:23:09;;;;;;;7.80;6.50;;;;;;;5.81;72.88;99173.53;4930633;28;99535;-87
2022/11/17 07:25:34;;;;;;;8.63;6.87;;;;;;;5.58;72.97;99138.69;4931982;28;98132;-85
2022/11/17 07:28:00;;;;;;;10.20;6.97;;;;;;;5.76;72.89;99159.81;4943564;28;97518;-87
2022/11/17 07:30:25;;;;;;;8.67;6.40;;;;;;;5.87;73.05;99170.72;4926893;28;101262;-88
2022/11/17 07:32:51;;;;;;;8.77;7.00;;;;;;;5.81;72.56;99157.91;4948442;28;96805;-87
2022/11/17 07:35:17;;;;;;;8.00;6.10;;;;;;;5.88;72.45;99164.63;4933489;28;97144;-87
2022/11/17 07:37:42;;;;;;;9.03;7.17;;;;;;;5.84;72.37;99148.22;4931692;28;99735;-87
2022/11/17 07:40:08;;;;;;;10.07;6.60;;;;;;;5.66;71.68;99131.47;4902575;28;100782;-88
2022/11/17 07:42:34;;;;;;;8.93;6.67;;;;;;;5.71;71.81;99140.91;4913224;28;97229;-88
2022/11/17 07:45:00;;;;;;;11.40;7.17;;;;;;;5.71;71.94;99149.56;4967553;28;96767;-87
2022/11/17 07:47:25;;;;;;;7.00;5.93;;;;;;;5.80;71.66;99158.81;4921002;28;100896;-89
2022/11/17 07:49:51;;;;;;;11.33;6.97;;;;;;;5.81;71.91;99158.75;4943288;28;100375;-87
2022/11/17 07:52:16;;;;;;;7.13;5.53;;;;;;;5.85;71.59;99167.34;4945192;28;96743;-86
2022/11/17 07:54:42;;;;;;;7.67;5.77;;;;;;;5.59;71.80;99145.59;4933419;28;97930;-86
2022/11/17 07:57:07;;;;;;;6.87;5.30;;;;;;;5.73;71.96;99163.41;4951689;28;101576;-87
2022/11/17 07:59:33;;;;;;;7.00;5.20;;;;;;;5.68;71.49;99147.06;4930091;28;101179;-87
2022/11/17 08:01:58;;;;;;;8.30;5.67;;;;;;;5.56;71.98;99130.09;4921557;28;97171;-86
2022/11/17 08:04:23;;;;;;;5.60;4.40;;;;;;;5.49;71.79;99125.97;4930937;28;97183;-88
2022/11/17 08:06:49;;;;;;;9.82;4.00;;;;;;;5.78;71.34;99156.25;4937147;28;100975;-87
2022/11/17 08:09:15;;;;;;;5.90;4.90;;;;;;;5.67;71.69;99141.00;4935458;28;100496;-88
2022/11/17 08:11:40;;;;;;;5.73;4.60;;;;;;;5.83;71.70;99164.78;4930909;28;97205;-89
2022/11/17 08:14:06;;;;;;;6.50;4.63;;;;;;;5.55;71.01;99115.34;4976551;28;97052;-96
2022/11/17 08:16:32;;;;;;;6.10;4.70;;;;;;;5.79;71.24;99163.19;4938700;28;101094;-93
2022/11/17 08:18:57;;;;;;;6.43;4.40;;;;;;;5.58;71.32;99135.22;4933977;28;99982;-93
2022/11/17 08:21:23;;;;;;;5.70;4.17;;;;;;;5.79;71.09;99162.31;4938475;28;96797;-96
2022/11/17 08:23:51;;;;;;;7.40;4.63;;;;;;;5.82;71.38;99167.44;4945006;28;97413;-93
2022/11/17 08:26:16;;;;;;;4.72;3.78;;;;;;;5.83;71.12;99163.94;4937677;28;97782;-89
2022/11/17 08:28:42;;;;;;;7.70;4.80;;;;;;;5.54;71.17;99131.88;4914310;28;101014;-89
2022/11/17 08:31:07;;;;;;;7.03;4.50;;;;;;;5.71;70.93;99151.31;4931388;28;96810;-85
2022/11/17 08:33:33;;;;;;;7.73;4.67;;;;;;;5.76;70.57;99165.00;4937993;28;97360;-85
2022/11/17 08:36:00;;;;;;;5.67;4.00;;;;;;;5.74;70.55;99162.47;4931683;28;101442;-86
2022/11/17 08:38:28;;;;;;;7.23;4.87;;;;;;;5.58;71.12;99130.03;4903345;28;101415;-84
2022/11/17 08:41:00;;;;;;;5.80;4.20;;;;;;;5.78;71.16;99161.47;4916476;28;97270;-84
2022/11/17 08:43:26;;;;;;;9.20;4.13;;;;;;;5.79;71.08;99172.72;4955892;28;96887;-84
2022/11/17 08:45:51;;;;;;;6.60;4.23;;;;;;;5.75;71.14;99155.50;4943282;28;98074;-83
2022/11/17 08:48:17;;;;;;;5.63;4.25;;;;;;;5.72;70.87;99151.25;4942152;28;98105;-84
2022/11/17 08:50:42;;;;;;;5.30;4.50;;;;;;;5.78;70.94;99174.47;4928033;28;97066;-83
2022/11/17 08:53:13;;;;;;;5.47;4.80;;;;;;;5.78;71.04;99173.63;4962032;28;97206;-84
2022/11/17 08:55:38;;;;;;;6.50;4.73;;;;;;;5.68;70.70;99162.69;4949212;28;97908;-84
2022/11/17 08:58:04;;;;;;;7.90;5.13;;;;;;;5.54;70.67;99162.28;4920615;28;101385;-84
2022/11/17 09:00:29;;;;;;;7.83;4.77;;;;;;;5.68;70.74;99180.91;4920537;28;98044;-85
2022/11/17 09:02:55;;;;;;;6.20;4.90;;;;;;;5.58;71.21;99190.75;4935326;28;96900;-84
2022/11/17 09:05:20;;;;;;;7.37;4.57;;;;;;;5.57;71.06;99169.97;4913261;28;100842;-85
2022/11/17 09:07:45;;;;;;;9.60;5.30;;;;;;;5.73;71.13;99191.16;4936315;28;101184;-86
2022/11/17 09:10:11;;;;;;;7.70;5.03;;;;;;;5.73;71.25;99193.75;4926846;28;96699;-87
2022/11/17 09:12:37;;;;;;;7.93;5.23;;;;;;;5.74;71.46;99187.69;4925594;28;96884;-89
2022/11/17 09:15:03;;;;;;;11.57;5.10;;;;;;;5.82;71.30;99198.69;4957540;28;99912;-90
2022/11/17 09:17:30;;;;;;;9.53;4.90;;;;;;;5.75;70.99;99189.38;4926292;28;99666;-87
2022/11/17 09:19:55;;;;;;;6.63;4.70;;;;;;;5.69;70.93;99195.63;4945683;28;96856;-87
2022/11/17 09:22:21;;;;;;;6.43;4.13;;;;;;;5.75;70.94;99184.16;4919778;28;97158;-87
2022/11/17 09:24:47;;;;;;;6.73;4.53;;;;;;;5.69;70.99;99174.78;4937673;28;97803;-86
2022/11/17 09:27:12;;;;;;;6.90;4.47;;;;;;;5.84;70.58;99181.25;4952630;28;98448;-86
2022/11/17 09:29:38;;;;;;;7.50;4.30;;;;;;;5.88;70.32;99188.06;4911353;28;96751;-86
2022/11/17 09:32:03;;;;;;;7.13;4.73;;;;;;;5.93;70.56;99182.69;4908922;28;96898;-88
2022/11/17 09:34:29;;;;;;;7.50;4.13;;;;;;;5.56;69.50;99144.84;4937945;28;98106;-88
2022/11/17 09:36:54;;;;;;;4.87;3.90;;;;;;;5.70;69.79;99165.22;4947368;28;98410;-86
2022/11/17 09:39:20;;;;;;;5.13;3.90;;;;;;;5.73;69.66;99180.75;4940708;28;97488;-88
2022/11/17 09:41:48;;;;;;;6.40;4.00;;;;;;;5.82;69.78;99183.91;4936701;28;97366;-90
2022/11/17 09:44:24;;;;;;;4.57;3.53;;;;;;;5.68;69.66;99165.28;4950644;28;100940;-85
2022/11/17 09:47:09;;;;;;;5.97;3.80;;;;;;;5.82;69.01;99177.88;4967001;28;98028;-87
2022/11/17 09:49:39;;;;;;;6.30;3.93;;;;;;;5.83;68.92;99183.00;4959197;28;98036;-86
2022/11/17 09:52:13;;;;;;;5.03;3.20;;;;;;;5.75;69.16;99165.94;4936398;28;96865;-86
2022/11/17 09:54:59;;;;;;;5.37;3.60;;;;;;;5.82;69.24;99181.31;4943050;28;100341;-86
2022/11/17 09:57:34;;;;;;;4.93;3.83;;;;;;;5.83;68.73;99182.16;4925117;28;97353;-86
2022/11/17 10:00:13;;;;;;;4.70;3.47;;;;;;;5.90;68.29;99183.66;4934230;28;97418;-85
2022/11/17 10:02:40;;;;;;;4.37;3.23;;;;;;;5.84;68.22;99173.44;4932690;28;97572;-86
2022/11/17 10:05:15;;;;;;;3.30;3.00;;;;;;;5.76;67.87;99181.53;4914453;28;101018;-87
2022/11/17 10:07:46;;;;;;;4.07;3.37;;;;;;;5.81;68.32;99173.53;4909053;28;101502;-87
2022/11/17 10:10:15;;;;;;;5.45;3.90;;;;;;;5.82;68.59;99162.25;4933337;28;98658;-86
2022/11/17 10:12:44;;;;;;;7.47;3.50;;;;;;;5.78;68.38;99168.44;4961470;28;96828;-85
2022/11/17 10:15:28;;;;;;;6.03;4.03;;;;;;;5.86;68.63;99176.84;4932052;28;101082;-85
2022/11/17 10:17:54;;;;;;;6.40;3.30;;;;;;;5.73;68.31;99167.72;4925927;28;101146;-83
2022/11/17 10:20:19;;;;;;;7.43;4.07;;;;;;;5.78;68.81;99184.06;4934546;28;97162;-85
2022/11/17 10:22:46;;;;;;;4.43;3.37;;;;;;;5.79;68.66;99183.16;4931798;28;98095;-86
2022/11/17 10:25:22;;;;;;;3.53;2.90;;;;;;;5.73;67.76;99172.94;4960434;28;97968;-87
2022/11/17 10:27:52;;;;;;;3.90;3.20;;;;;;;5.66;68.13;99167.94;4941498;28;101009;-86
2022/11/17 10:30:18;;;;;;;5.23;3.33;;;;;;;5.65;68.34;99174.03;4929555;28;97491;-86
2022/11/17 10:32:52;;;;;;;8.63;3.33;;;;;;;5.70;68.47;99180.84;4952598;28;96990;-86
2022/11/17 10:35:30;;;;;;;4.67;3.67;;;;;;;5.72;68.35;99189.47;4952425;28;97637;-88
2022/11/17 10:38:16;;;;;;;5.20;2.90;;;;;;;5.66;68.33;99180.94;4935156;28;101905;-87
2022/11/17 10:40:42;;;;;;;4.50;2.67;;;;;;;5.67;67.76;99176.59;4945594;28;96768;-87
2022/11/17 10:43:10;;;;;;;5.27;3.00;;;;;;;5.65;68.06;99157.56;4984339;28;96745;-87
2022/11/17 10:45:38;;;;;;;4.20;2.83;;;;;;;5.58;67.75;99182.09;4954402;28;98422;-88
2022/11/17 10:48:19;;;;;;;4.43;2.50;;;;;;;5.57;67.52;99172.59;4946263;28;100985;-86
2022/11/17 10:50:57;;;;;;;5.37;2.93;;;;;;;5.62;67.88;99162.88;4918436;28;97096;-87
2022/11/17 10:53:35;;;;;;;4.17;2.60;;;;;;;5.70;68.02;99165.22;4953710;28;96742;-86
2022/11/17 10:56:21;;;;;;;5.60;2.87;;;;;;;5.74;68.08;99187.69;4934256;28;101721;-86
2022/11/17 10:59:03;;;;;;;4.40;3.37;;;;;;;5.70;67.69;99163.47;4921676;28;101358;-86
2022/11/17 11:01:34;;;;;;;3.77;2.70;;;;;;;5.65;67.33;99154.97;4936078;28;97086;-87
2022/11/17 11:04:00;;;;;;;3.27;2.77;;;;;;;5.81;67.44;99158.75;4950340;28;97335;-85
2022/11/17 11:06:28;;;;;;;3.87;2.53;;;;;;;5.89;67.50;99163.72;4948445;28;101154;-85
2022/11/17 11:08:54;;;;;;;5.03;2.77;;;;;;;5.87;67.21;99162.91;4917086;28;101474;-85
2022/11/17 11:11:28;;;;;;;3.90;3.27;;;;;;;5.60;66.52;99121.25;4955189;28;97436;-84
2022/11/17 11:13:57;;;;;;;4.03;2.73;;;;;;;5.81;66.36;99186.56;4937467;28;97236;-84
2022/11/17 11:16:25;;;;;;;3.27;2.53;;;;;;;5.54;66.06;99141.44;4939473;28;101468;-86
2022/11/17 11:18:51;;;;;;;4.57;2.83;;;;;;;5.75;66.32;99173.75;4937565;28;101204;-83
2022/11/17 11:21:25;;;;;;;3.77;2.83;;;;;;;5.76;66.62;99172.81;4967050;28;97051;-86
2022/11/17 11:24:05;;;;;;;5.00;2.80;;;;;;;5.83;66.95;99172.59;4965932;28;96783;-82
2022/11/17 11:26:45;;;;;;;4.57;3.03;;;;;;;5.86;66.69;99161.22;4947157;28;97539;-85
2022/11/17 11:29:32;;;;;;;3.37;2.40;;;;;;;5.79;66.41;99164.91;4962545;28;101562;-83
2022/11/17 11:32:42;;;;;;;5.27;3.30;;;;;;;5.76;66.37;99167.63;4944724;28;96813;-85
2022/11/17 11:35:31;;;;;;;4.37;3.00;;;;;;;5.66;66.10;99165.31;4944087;28;96741;-85
2022/11/17 11:38:03;;;;;;;4.37;3.03;;;;;;;5.64;66.42;99161.94;4933856;28;100037;-84
2022/11/17 11:40:33;;;;;;;3.92;3.05;;;;;;;5.60;66.38;99152.50;4950785;28;101409;-86
2022/11/17 11:43:22;;;;;;;4.60;3.43;;;;;;;5.68;66.75;99173.94;4921824;28;98051;-85
2022/11/17 11:45:52;;;;;;;4.87;3.30;;;;;;;5.68;66.28;99173.94;4961634;28;97679;-85
2022/11/17 11:48:32;;;;;;;4.10;3.43;;;;;;;5.68;66.13;99165.28;4933947;28;99925;-84
2022/11/17 11:51:04;;;;;;;3.90;3.00;;;;;;;5.49;66.11;99152.00;4937622;28;101737;-85
2022/11/17 11:53:48;;;;;;;8.88;3.42;;;;;;;5.61;66.16;99159.44;4938376;28;97048;-85
2022/11/17 11:56:21;;;;;;;4.63;3.37;;;;;;;5.65;66.24;99170.59;4927173;28;97199;-85
2022/11/17 11:59:11;;;;;;;6.40;3.53;;;;;;;5.68;65.97;99163.53;4919957;28;100982;-83
2022/11/17 12:01:46;;;;;;;4.77;3.20;;;;;;;5.65;66.36;99158.41;4911870;28;100951;-84
2022/11/17 12:04:42;;;;;;;4.23;3.13;;;;;;;5.72;65.99;99159.06;4961206;28;97258;-83
2022/11/17 12:07:12;;;;;;;3.87;3.17;;;;;;;5.70;65.93;99162.63;4946334;28;96936;-83
2022/11/17 12:09:53;;;;;;;5.80;3.53;;;;;;;5.75;65.95;99171.13;4927785;28;100415;-84
2022/11/17 12:12:31;;;;;;;5.77;3.60;;;;;;;5.79;66.16;99197.03;4940732;28;101734;-84
2022/11/17 12:15:30;;;;;;;5.93;3.70;;;;;;;5.65;66.01;99175.81;4953848;28;98543;-84
2022/11/17 12:18:02;;;;;;;5.30;3.40;;;;;;;5.70;66.08;99181.69;4950207;28;97149;-85